CST,Max TemperatureF,Mean TemperatureF,Min TemperatureF,Max Dew PointF,MeanDew PointF,Min DewpointF,Max Humidity, Mean Humidity, Min Humidity, Max Sea Level PressureIn, Mean Sea Level PressureIn, Min Sea Level PressureIn, Max VisibilityMiles, Mean VisibilityMiles, Min VisibilityMiles, Max Wind SpeedMPH, Mean Wind SpeedMPH, Max Gust SpeedMPH,PrecipitationIn, CloudCover, Events, WindDirDegrees
2013-11-1,42,37,32,37,32,27,93,81,70,30.00,29.80,29.59,10,10,7,26,15,34,0.00,5,Rain,299
2013-11-2,55,40,26,32,27,23,93,65,33,30.06,29.96,29.76,10,10,10,17,9,24,0.00,1,,219
2013-11-3,44,40,35,34,30,27,81,68,57,29.74,29.59,29.52,10,10,10,22,12,28,0.00,1,,172
2013-11-4,39,31,23,27,20,14,80,62,39,30.07,29.88,29.69,10,10,8,30,18,37,0.00,2,,285
2013-11-5,37,27,17,23,17,14,86,68,45,30.20,30.13,30.08,10,10,9,15,9,,0.00,0,,247
2013-11-6,44,32,21,25,21,16,100,73,31,30.23,30.09,30.03,10,10,6,13,8,16,0.00,3,,270
2013-11-7,46,32,17,27,21,16,93,67,37,30.24,30.17,29.97,10,10,10,21,9,26,0.00,1,,263
2013-11-8,44,38,32,37,31,23,93,77,65,29.96,29.67,29.54,10,10,8,26,11,34,0.00,7,Rain,230
2013-11-9,39,30,21,32,24,18,87,72,52,30.29,30.09,29.80,10,10,10,30,19,43,0.00,4,,297
2013-11-10,41,29,17,28,17,-4,93,67,36,30.37,30.21,30.10,10,10,8,24,12,30,0.00,5,Rain-Snow,273
2013-11-11,23,14,6,1,-1,-6,79,52,28,30.68,30.59,30.38,10,10,8,18,10,21,0.00,2,,338
2013-11-12,46,28,10,27,17,1,93,71,43,30.66,30.43,30.10,10,10,10,17,11,24,0.00,0,,199
2013-11-13,53,40,28,36,31,27,93,68,47,30.10,29.95,29.87,10,10,10,23,12,28,0.00,1,,270
2013-11-14,50,39,28,34,30,25,93,71,43,29.90,29.83,29.76,10,10,9,22,13,26,0.00,2,,283
2013-11-15,53,38,24,32,27,23,100,75,38,29.76,29.54,29.37,10,10,7,15,7,,0.00,0,,193
2013-11-16,42,33,24,34,27,19,100,77,53,29.38,29.33,29.26,10,10,6,12,5,17,0.00,5,Rain,323
2013-11-17,33,30,26,32,29,23,100,91,80,29.97,29.68,29.39,10,8,1,15,6,20,0.02,8,Rain-Snow,319
2013-11-18,41,29,17,30,24,16,100,81,57,30.07,30.01,29.92,10,10,2,14,7,22,0.00,0,,175
2013-11-19,37,34,30,30,28,27,87,80,70,29.92,29.65,29.52,10,10,10,18,11,,0.00,0,,177
2013-11-20,32,21,10,28,15,7,93,79,64,30.32,29.96,29.62,10,9,1,25,16,32,1.20,6,Rain-Snow,345
2013-11-21,10,5,0,5,0,-2,92,76,62,30.60,30.51,30.33,10,10,10,23,16,29,0.00,2,Rain-Snow,290
2013-11-22,19,8,-4,12,3,-8,85,74,62,30.79,30.57,30.40,10,10,10,20,13,23,0.00,2,Snow,316
2013-11-23,15,3,-9,9,-1,-13,92,75,53,30.81,30.66,30.33,10,10,10,16,7,21,0.00,1,,181
2013-11-24,44,29,14,27,19,9,86,70,46,30.32,29.99,29.85,10,10,10,25,14,31,0.00,1,Rain,242
2013-11-25,33,28,24,25,22,16,93,74,64,30.28,30.13,29.95,10,10,10,25,16,33,0.00,4,Rain,313
2013-11-26,23,16,8,16,8,3,92,74,54,30.47,30.39,30.28,10,10,8,21,13,31,0.01,1,Rain-Snow,342
2013-11-27,35,22,10,23,16,5,86,75,52,30.28,30.04,29.87,10,10,10,28,15,34,0.00,3,Rain,263
2013-11-28,24,20,15,19,14,10,93,76,68,30.37,30.29,30.18,10,10,10,20,11,24,0.00,5,Snow,74
2013-11-29,39,27,15,25,19,12,93,81,56,30.21,30.03,29.94,10,10,9,15,9,17,0.00,2,,201
2013-11-30,37,28,19,28,26,18,93,82,65,30.15,30.10,30.01,10,10,6,9,5,,0.00,6,,290